createdAt,value
2018-02-17T00:00:24.790Z,87.90
2018-02-17T00:02:52.291Z,87.70
2018-02-17T00:05:19.794Z,87.50
2018-02-17T00:07:47.296Z,87.60
2018-02-17T00:10:14.796Z,87.60
2018-02-17T00:12:43.091Z,88.10
2018-02-17T00:15:10.624Z,88.90
2018-02-17T00:17:38.152Z,88.20
2018-02-17T00:20:05.648Z,88.00
2018-02-17T00:22:33.915Z,87.80
2018-02-17T00:25:01.411Z,87.70
2018-02-17T00:27:28.927Z,87.80
2018-02-17T00:29:56.426Z,88.00
2018-02-17T00:32:23.974Z,88.10
2018-02-17T00:34:52.238Z,87.80
2018-02-17T00:37:19.752Z,87.80
2018-02-17T00:39:47.284Z,88.40
2018-02-17T00:42:15.560Z,87.80
2018-02-17T00:44:43.830Z,87.50
2018-02-17T00:47:12.094Z,87.70
2018-02-17T00:49:39.615Z,87.70
2018-02-17T00:52:07.131Z,87.90
2018-02-17T00:54:35.395Z,88.10
2018-02-17T00:57:03.671Z,88.20
2018-02-17T00:59:31.940Z,88.30
2018-02-17T01:01:59.445Z,88.20
2018-02-17T01:04:26.950Z,88.00
2018-02-17T01:06:54.455Z,87.90
2018-02-17T01:09:21.975Z,87.90
2018-02-17T01:11:50.979Z,87.80
2018-02-17T01:14:18.494Z,87.70
2018-02-17T01:16:46.000Z,87.50
2018-02-17T01:19:14.275Z,87.50
2018-02-17T01:21:41.778Z,87.50
2018-02-17T01:24:09.288Z,87.00
2018-02-17T01:26:36.793Z,87.00
2018-02-17T01:29:04.288Z,87.10
2018-02-17T01:31:31.783Z,87.00
2018-02-17T01:34:00.047Z,86.90
2018-02-17T01:36:28.315Z,87.00
2018-02-17T01:38:55.826Z,87.00
2018-02-17T01:41:23.348Z,86.90
2018-02-17T01:43:51.611Z,86.80
2018-02-17T01:46:19.135Z,86.80
2018-02-17T01:48:46.635Z,87.00
2018-02-17T01:51:14.130Z,87.30
2018-02-17T01:53:41.624Z,87.40
2018-02-17T01:56:09.135Z,87.40
2018-02-17T01:58:37.419Z,87.00
2018-02-17T02:01:04.924Z,86.90
2018-02-17T02:03:32.423Z,86.60
2018-02-17T02:06:00.697Z,87.20
2018-02-17T02:08:28.967Z,87.20
2018-02-17T02:10:57.256Z,87.20
2018-02-17T02:13:25.515Z,87.10
2018-02-17T02:15:53.034Z,87.00
2018-02-17T02:18:20.532Z,87.20
2018-02-17T02:20:48.803Z,87.50
2018-02-17T02:23:16.311Z,87.50
2018-02-17T02:25:43.823Z,86.70
2018-02-17T02:28:12.823Z,87.40
2018-02-17T02:30:41.096Z,87.40
2018-02-17T02:33:08.613Z,87.30
2018-02-17T02:35:36.135Z,87.80
2018-02-17T02:38:03.648Z,87.60
2018-02-17T02:40:31.148Z,87.80
2018-02-17T02:42:59.411Z,88.00
2018-02-17T02:45:26.904Z,88.00
2018-02-17T02:47:54.403Z,88.00
2018-02-17T02:50:21.907Z,88.10
2018-02-17T02:52:49.427Z,88.10
2018-02-17T02:55:16.953Z,88.20
2018-02-17T02:57:44.460Z,88.40
2018-02-17T03:00:11.955Z,88.50
2018-02-17T03:02:39.471Z,89.00
2018-02-17T03:05:06.972Z,88.80
2018-02-17T03:07:34.478Z,88.90
2018-02-17T03:10:01.971Z,89.00
2018-02-17T03:12:30.231Z,89.30
2018-02-17T03:14:58.525Z,89.20
2018-02-17T03:17:26.791Z,89.40
2018-02-17T03:19:55.059Z,89.60
2018-02-17T03:22:23.326Z,89.60
2018-02-17T03:24:50.832Z,89.60
2018-02-17T03:27:18.336Z,89.80
2018-02-17T03:29:45.835Z,89.80
2018-02-17T03:32:13.347Z,89.80
2018-02-17T03:34:40.856Z,89.80
2018-02-17T03:37:08.362Z,89.80
2018-02-17T03:39:35.867Z,89.80
2018-02-17T03:42:03.363Z,89.80
2018-02-17T03:44:30.883Z,89.70
2018-02-17T03:46:58.384Z,89.60
2018-02-17T03:49:25.887Z,89.70
2018-02-17T03:51:54.158Z,89.80
2018-02-17T03:54:22.415Z,89.90
2018-02-17T03:56:49.935Z,89.90
2018-02-17T03:59:17.436Z,90.00
2018-02-17T04:01:44.928Z,90.10
2018-02-17T04:04:12.427Z,90.20
2018-02-17T04:06:39.975Z,90.20
2018-02-17T04:09:07.463Z,90.20
2018-02-17T04:11:35.001Z,90.20
2018-02-17T04:14:02.500Z,90.20
2018-02-17T04:16:30.775Z,90.20
2018-02-17T04:18:59.084Z,90.20
2018-02-17T04:21:26.595Z,90.20
2018-02-17T04:23:54.100Z,90.20
2018-02-17T04:26:21.594Z,90.10
2018-02-17T04:28:49.109Z,90.10
2018-02-17T04:31:16.607Z,90.10
2018-02-17T04:33:44.111Z,90.10
2018-02-17T04:36:12.378Z,90.10
2018-02-17T04:38:40.640Z,90.10
2018-02-17T04:54:40.732Z,90.20
2018-02-17T04:57:29.138Z,90.30
2018-02-17T05:00:03.476Z,90.40
2018-02-17T05:02:36.645Z,90.30
2018-02-17T05:05:19.929Z,90.30
2018-02-17T05:21:21.863Z,90.20
2018-02-17T05:23:50.192Z,90.30
2018-02-17T05:26:18.183Z,90.40
2018-02-17T05:28:45.688Z,90.50
2018-02-17T05:31:25.043Z,90.40
2018-02-17T05:33:57.143Z,90.40
2018-02-17T05:36:29.563Z,90.40
2018-02-17T05:39:03.431Z,90.40
2018-02-17T05:41:31.874Z,90.40
2018-02-17T05:43:59.393Z,90.40
2018-02-17T05:46:27.811Z,90.40
2018-02-17T05:48:58.864Z,90.50
2018-02-17T05:51:26.365Z,90.40
2018-02-17T05:53:53.871Z,90.30
2018-02-17T05:56:21.378Z,90.30
2018-02-17T05:58:48.878Z,90.20
2018-02-17T06:01:17.147Z,90.20
2018-02-17T06:03:45.416Z,90.20
2018-02-17T06:06:13.687Z,90.30
2018-02-17T06:08:41.962Z,90.30
2018-02-17T06:11:10.239Z,90.20
2018-02-17T06:13:39.242Z,90.10
2018-02-17T06:16:07.504Z,90.10
2018-02-17T06:18:35.037Z,90.10
2018-02-17T06:21:02.519Z,90.30
2018-02-17T06:23:30.134Z,90.40
2018-02-17T06:25:57.762Z,90.30
2018-02-17T06:28:25.411Z,90.60
2018-02-17T06:30:53.675Z,90.70
2018-02-17T06:33:21.188Z,90.70
2018-02-17T06:35:48.687Z,90.70
2018-02-17T06:38:16.183Z,90.60
2018-02-17T06:40:43.680Z,90.60
2018-02-17T06:43:11.183Z,90.50
2018-02-17T06:45:39.442Z,90.40
2018-02-17T06:48:06.961Z,90.40
2018-02-17T06:50:34.455Z,90.40
2018-02-17T06:53:01.963Z,90.60
2018-02-17T06:55:29.471Z,90.20
2018-02-17T06:57:56.966Z,90.00
2018-02-17T07:00:24.469Z,90.00
2018-02-17T07:02:52.021Z,89.90
2018-02-17T07:05:19.531Z,89.70
2018-02-17T07:07:47.799Z,89.50
2018-02-17T07:10:16.079Z,89.50
2018-02-17T07:12:44.342Z,89.50
2018-02-17T07:15:12.615Z,89.40
2018-02-17T07:17:40.219Z,89.40
2018-02-17T07:20:07.724Z,89.30
2018-02-17T07:22:35.995Z,88.70
2018-02-17T07:25:03.491Z,88.60
2018-02-17T07:27:31.006Z,88.60
2018-02-17T07:29:58.505Z,88.60
2018-02-17T07:32:26.019Z,88.90
2018-02-17T07:34:53.511Z,89.20
2018-02-17T07:37:21.783Z,89.10
2018-02-17T07:39:50.061Z,89.10
2018-02-17T07:42:18.315Z,89.60
2018-02-17T07:44:45.824Z,89.50
2018-02-17T07:47:13.331Z,89.50
2018-02-17T07:49:40.827Z,89.70
2018-02-17T07:52:08.342Z,89.90
2018-02-17T07:54:35.835Z,89.80
2018-02-17T07:57:04.095Z,90.00
2018-02-17T07:59:31.594Z,90.00
2018-02-17T08:01:59.108Z,90.50
2018-02-17T08:04:27.403Z,90.20
2018-02-17T08:06:55.683Z,90.30
2018-02-17T08:09:23.946Z,90.50
2018-02-17T08:11:52.218Z,90.60
2018-02-17T08:14:20.498Z,90.70
2018-02-17T08:16:48.763Z,90.70
2018-02-17T08:19:16.272Z,90.70
2018-02-17T08:21:43.770Z,90.80
2018-02-17T08:24:11.275Z,90.60
2018-02-17T08:26:38.771Z,90.60
2018-02-17T08:29:06.275Z,90.60
2018-02-17T08:31:34.563Z,90.80
2018-02-17T08:34:02.070Z,90.80
2018-02-17T08:36:29.588Z,90.90
2018-02-17T08:38:57.103Z,90.90
2018-02-17T08:41:24.615Z,91.10
2018-02-17T08:43:52.113Z,91.20
2018-02-17T08:46:19.605Z,91.10
2018-02-17T08:48:47.872Z,90.60
2018-02-17T08:51:16.132Z,90.40
2018-02-17T08:53:43.638Z,90.40
2018-02-17T08:56:11.131Z,90.30
2018-02-17T08:58:38.640Z,90.20
2018-02-17T09:01:06.151Z,90.00
2018-02-17T09:03:33.655Z,89.70
2018-02-17T09:06:01.951Z,89.30
2018-02-17T09:08:29.475Z,89.30
2018-02-17T09:10:57.751Z,89.20
2018-02-17T09:13:26.020Z,89.10
2018-02-17T09:15:53.523Z,88.90
2018-02-17T09:18:21.016Z,89.20
2018-02-17T09:20:48.522Z,88.60
2018-02-17T09:23:16.059Z,89.40
2018-02-17T09:25:44.321Z,88.20
2018-02-17T09:28:11.851Z,88.10
2018-02-17T09:30:39.350Z,88.30
2018-02-17T09:33:07.616Z,88.00
2018-02-17T09:35:35.137Z,87.90
2018-02-17T09:38:02.631Z,87.80
2018-02-17T09:40:30.136Z,87.40
2018-02-17T09:42:57.668Z,87.00
2018-02-17T09:45:25.943Z,86.80
2018-02-17T09:47:54.205Z,86.60
2018-02-17T09:50:23.203Z,86.90
2018-02-17T09:52:50.739Z,86.90
2018-02-17T09:55:18.253Z,86.80
2018-02-17T09:57:45.751Z,87.00
2018-02-17T10:00:13.251Z,86.90
2018-02-17T10:02:41.520Z,86.70
2018-02-17T10:05:09.783Z,86.50
2018-02-17T10:07:37.536Z,86.50
2018-02-17T10:10:05.027Z,86.20
2018-02-17T10:12:33.291Z,86.20
2018-02-17T10:15:01.556Z,86.00
2018-02-17T10:17:29.067Z,86.00
2018-02-17T10:19:56.583Z,85.90
2018-02-17T10:22:24.856Z,85.60
2018-02-17T10:24:52.352Z,85.60
2018-02-17T10:27:19.851Z,86.00
2018-02-17T10:29:47.351Z,85.10
2018-02-17T10:32:15.611Z,84.50
2018-02-17T10:34:43.907Z,84.80
2018-02-17T10:37:12.176Z,84.90
2018-02-17T10:39:40.446Z,85.00
2018-02-17T10:42:08.723Z,85.30
2018-02-17T10:44:36.987Z,85.30
2018-02-17T10:47:04.528Z,85.30
2018-02-17T10:49:32.028Z,85.50
2018-02-17T10:52:00.299Z,85.60
2018-02-17T10:54:28.576Z,84.50
2018-02-17T10:56:56.841Z,84.30
2018-02-17T10:59:25.114Z,84.10
2018-02-17T11:01:53.379Z,84.00
2018-02-17T11:04:20.874Z,84.00
2018-02-17T11:06:48.384Z,84.00
2018-02-17T11:09:15.886Z,83.90
2018-02-17T11:11:43.393Z,83.50
2018-02-17T11:14:10.895Z,83.30
2018-02-17T11:16:39.160Z,83.40
2018-02-17T11:19:07.431Z,83.70
2018-02-17T11:21:34.956Z,83.60
2018-02-17T11:24:02.460Z,83.60
2018-02-17T11:26:30.731Z,83.30
2018-02-17T11:28:59.014Z,83.10
2018-02-17T11:31:27.277Z,83.40
2018-02-17T11:33:54.769Z,83.30
2018-02-17T11:36:22.272Z,83.70
2018-02-17T11:38:49.775Z,84.00
2018-02-17T11:41:17.271Z,84.00
2018-02-17T11:43:44.777Z,84.10
2018-02-17T11:46:13.069Z,83.90
2018-02-17T11:48:40.583Z,83.90
2018-02-17T11:51:08.089Z,84.10
2018-02-17T11:53:35.622Z,84.30
2018-02-17T11:56:03.096Z,84.50
2018-02-17T11:58:31.366Z,85.20
2018-02-17T12:00:59.651Z,85.20
2018-02-17T12:03:27.941Z,85.00
2018-02-17T12:05:56.207Z,84.90
2018-02-17T12:08:24.466Z,84.80
2018-02-17T12:10:52.738Z,84.40
2018-02-17T12:13:20.227Z,84.40
2018-02-17T12:15:47.743Z,84.00
2018-02-17T12:18:15.236Z,83.90
2018-02-17T12:20:42.743Z,84.70
2018-02-17T12:23:10.239Z,85.00
2018-02-17T12:25:38.535Z,84.80
2018-02-17T12:28:06.031Z,84.80
2018-02-17T12:30:33.536Z,86.50
2018-02-17T12:33:01.814Z,89.60
2018-02-17T12:35:29.315Z,89.60
2018-02-17T12:37:56.820Z,86.80
2018-02-17T12:40:25.133Z,84.60
2018-02-17T12:42:52.639Z,84.50
2018-02-17T12:45:20.232Z,83.50
2018-02-17T12:47:47.761Z,83.20
2018-02-17T12:50:15.255Z,83.30
2018-02-17T12:52:42.767Z,83.70
2018-02-17T12:55:10.271Z,83.90
2018-02-17T12:57:37.773Z,83.50
2018-02-17T13:00:05.282Z,83.60
2018-02-17T13:02:32.795Z,84.10
2018-02-17T13:05:00.291Z,84.00
2018-02-17T13:07:28.564Z,83.90
2018-02-17T13:09:56.831Z,84.30
2018-02-17T13:12:25.103Z,84.40
2018-02-17T13:14:53.383Z,84.60
2018-02-17T13:17:21.648Z,85.30
2018-02-17T13:19:49.194Z,85.30
2018-02-17T13:22:16.705Z,85.70
2018-02-17T13:24:44.208Z,85.60
2018-02-17T13:27:11.744Z,85.90
2018-02-17T13:29:39.250Z,86.10
2018-02-17T13:32:07.528Z,86.40
2018-02-17T13:34:35.791Z,86.20
2018-02-17T13:37:03.376Z,86.20
2018-02-17T13:39:31.635Z,86.10
2018-02-17T13:41:59.139Z,86.10
2018-02-17T13:44:26.643Z,87.10
2018-02-17T13:46:54.150Z,87.00
2018-02-17T13:49:21.664Z,87.00
2018-02-17T13:51:49.175Z,87.40
2018-02-17T13:54:16.704Z,87.40
2018-02-17T13:56:44.964Z,87.10
2018-02-17T13:59:12.465Z,87.20
2018-02-17T14:01:39.959Z,87.20
2018-02-17T14:04:07.471Z,87.70
2018-02-17T14:06:34.996Z,88.20
2018-02-17T14:09:02.496Z,88.20
2018-02-17T14:11:30.007Z,88.50
2018-02-17T14:13:57.545Z,88.50
2018-02-17T14:16:25.099Z,88.30
2018-02-17T14:18:52.608Z,88.00
2018-02-17T14:21:20.873Z,88.20
2018-02-17T14:23:49.158Z,88.00
2018-02-17T14:26:17.444Z,87.90
2018-02-17T14:28:44.960Z,87.90
2018-02-17T14:31:12.479Z,88.00
2018-02-17T14:33:39.980Z,88.10
2018-02-17T14:36:07.543Z,88.20
2018-02-17T14:38:35.842Z,88.70
2018-02-17T14:41:04.131Z,89.10
2018-02-17T14:43:32.426Z,88.90
2018-02-17T14:45:59.917Z,88.90
2018-02-17T14:48:27.427Z,88.80
2018-02-17T14:50:54.947Z,88.60
2018-02-17T14:53:22.456Z,88.20
2018-02-17T14:55:49.955Z,88.20
2018-02-17T14:58:17.466Z,88.10
2018-02-17T15:00:44.969Z,88.20
2018-02-17T15:03:12.463Z,88.20
2018-02-17T15:05:40.724Z,90.60
2018-02-17T15:08:08.261Z,90.60
2018-02-17T15:10:35.764Z,91.20
2018-02-17T15:13:04.047Z,88.20
2018-02-17T15:15:32.303Z,87.20
2018-02-17T15:18:00.568Z,86.80
2018-02-17T15:20:28.852Z,86.70
2018-02-17T15:22:57.119Z,86.70
2018-02-17T15:25:24.734Z,86.80
2018-02-17T15:27:52.240Z,86.60
2018-02-17T15:30:19.745Z,86.40
2018-02-17T15:32:47.265Z,86.40
2018-02-17T15:35:15.567Z,86.20
2018-02-17T15:37:43.811Z,86.50
2018-02-17T15:40:11.308Z,86.40
2018-02-17T15:42:38.831Z,86.60
2018-02-17T15:45:07.132Z,86.90
2018-02-17T15:47:34.645Z,86.90
2018-02-17T15:50:02.135Z,86.90
2018-02-17T15:52:30.391Z,87.00
2018-02-17T15:54:59.394Z,87.20
2018-02-17T15:57:27.713Z,87.00
2018-02-17T15:59:55.228Z,87.00
2018-02-17T16:02:22.730Z,86.90
2018-02-17T16:04:50.295Z,87.50
2018-02-17T16:07:18.528Z,87.20
2018-02-17T16:09:46.795Z,87.40
2018-02-17T16:12:14.405Z,87.40
2018-02-17T16:14:41.909Z,87.50
2018-02-17T16:17:09.425Z,87.10
2018-02-17T16:19:36.977Z,87.40
2018-02-17T16:22:04.472Z,87.30
2018-02-17T16:24:31.973Z,87.10
2018-02-17T16:27:00.254Z,87.30
2018-02-17T16:29:28.504Z,87.30
2018-02-17T16:31:57.136Z,87.40
2018-02-17T16:34:24.639Z,87.40
2018-02-17T16:36:52.167Z,87.50
2018-02-17T16:39:19.675Z,87.60
2018-02-17T16:41:47.946Z,88.00
2018-02-17T16:44:16.240Z,88.00
2018-02-17T16:46:43.751Z,88.00
2018-02-17T16:49:11.252Z,88.10
2018-02-17T16:51:39.515Z,88.40
2018-02-17T16:54:07.779Z,88.30
2018-02-17T16:56:35.300Z,88.20
2018-02-17T16:59:02.801Z,88.30
2018-02-17T17:01:31.083Z,88.60
2018-02-17T17:03:59.355Z,88.80
2018-02-17T17:06:27.623Z,89.00
2018-02-17T17:08:55.148Z,89.00
2018-02-17T17:11:22.645Z,89.40
2018-02-17T17:13:50.145Z,89.60
2018-02-17T17:16:17.643Z,89.60
2018-02-17T17:18:45.147Z,89.80
2018-02-17T17:21:12.659Z,89.90
2018-02-17T17:23:40.169Z,89.70
2018-02-17T17:26:07.683Z,89.60
2018-02-17T17:28:35.179Z,90.00
2018-02-17T17:31:02.695Z,90.00
2018-02-17T17:33:30.208Z,90.00
2018-02-17T17:35:57.717Z,90.10
2018-02-17T17:38:25.215Z,90.10
2018-02-17T17:40:52.718Z,90.20
2018-02-17T17:43:20.207Z,90.10
2018-02-17T17:45:48.475Z,90.00
2018-02-17T17:48:16.791Z,90.00
2018-02-17T17:50:44.303Z,90.00
2018-02-17T17:53:11.803Z,90.10
2018-02-17T17:55:39.299Z,90.10
2018-02-17T17:58:06.792Z,90.10
2018-02-17T18:00:34.299Z,90.10
2018-02-17T18:03:01.811Z,90.20
2018-02-17T18:05:30.079Z,90.20
2018-02-17T18:07:57.587Z,90.20
2018-02-17T18:10:25.100Z,90.10
2018-02-17T18:12:52.606Z,90.10
2018-02-17T18:15:20.106Z,90.10
2018-02-17T18:17:47.619Z,90.00
2018-02-17T18:20:15.147Z,90.00
2018-02-17T18:22:43.421Z,90.00
2018-02-17T18:25:11.682Z,89.80
2018-02-17T18:27:39.185Z,89.80
2018-02-17T18:30:06.684Z,89.30
2018-02-17T18:32:34.198Z,89.60
2018-02-17T18:35:01.695Z,89.60
2018-02-17T18:37:29.195Z,89.50
2018-02-17T18:39:57.459Z,89.40
2018-02-17T18:42:25.721Z,89.50
2018-02-17T18:44:53.219Z,89.50
2018-02-17T18:47:20.727Z,89.30
2018-02-17T18:49:48.227Z,89.30
2018-02-17T18:52:16.507Z,89.60
2018-02-17T18:54:44.020Z,89.60
2018-02-17T18:57:11.527Z,90.20
2018-02-17T18:59:39.119Z,89.70
2018-02-17T19:02:06.618Z,89.70
2018-02-17T19:04:34.900Z,93.70
2018-02-17T19:07:03.166Z,92.60
2018-02-17T19:09:30.667Z,92.60
2018-02-17T19:11:58.198Z,91.40
2018-02-17T19:14:25.675Z,90.20
2018-02-17T19:16:53.195Z,89.30
2018-02-17T19:19:20.730Z,89.00
2018-02-17T19:21:48.243Z,88.70
2018-02-17T19:24:15.775Z,88.70
2018-02-17T19:26:44.061Z,88.60
2018-02-17T19:29:12.333Z,88.70
2018-02-17T19:31:40.595Z,88.50
2018-02-17T19:34:08.100Z,88.50
2018-02-17T19:36:35.586Z,88.50
2018-02-17T19:39:03.103Z,88.40
2018-02-17T19:41:31.420Z,88.80
2018-02-17T19:43:58.949Z,88.70
2018-02-17T19:46:26.523Z,88.90
2018-02-17T19:48:54.037Z,88.90
2018-02-17T19:51:22.327Z,89.00
2018-02-17T19:53:50.611Z,89.00
2018-02-17T19:56:18.145Z,89.00
2018-02-17T19:58:45.659Z,89.10
2018-02-17T20:01:13.207Z,89.70
2018-02-17T20:03:40.714Z,89.30
2018-02-17T20:06:08.298Z,89.40
2018-02-17T20:08:36.597Z,89.50
2018-02-17T20:11:04.104Z,89.50
2018-02-17T20:13:31.623Z,89.70
2018-02-17T20:15:59.206Z,89.80
2018-02-17T20:18:26.724Z,89.70
2018-02-17T20:20:54.263Z,89.90
2018-02-17T20:23:22.577Z,90.20
2018-02-17T20:25:50.099Z,90.20
2018-02-17T20:28:18.413Z,90.30
2018-02-17T20:30:45.917Z,90.30
2018-02-17T20:33:14.213Z,90.50
2018-02-17T20:35:42.500Z,90.60
2018-02-17T20:38:10.775Z,90.50
2018-02-17T20:40:38.313Z,90.50
2018-02-17T20:43:06.618Z,91.00
2018-02-17T20:45:34.155Z,90.70
2018-02-17T20:48:02.462Z,90.80
2018-02-17T20:50:29.991Z,90.80
2018-02-17T20:52:58.289Z,90.80
2018-02-17T20:55:25.830Z,90.80
2018-02-17T20:57:54.122Z,90.70
2018-02-17T21:00:21.636Z,90.70
2018-02-17T21:02:49.174Z,90.70
2018-02-17T21:05:16.639Z,91.10
2018-02-17T21:07:44.173Z,90.80
2018-02-17T21:10:11.699Z,90.70
2018-02-17T21:12:40.022Z,90.60
2018-02-17T21:15:07.540Z,90.60
2018-02-17T21:17:35.028Z,90.60
2018-02-17T21:20:02.532Z,90.70
2018-02-17T21:22:30.035Z,90.60
2018-02-17T21:24:57.548Z,90.70
2018-02-17T21:27:25.112Z,90.70
2018-02-17T21:29:52.728Z,90.70
2018-02-17T21:32:20.251Z,90.70
2018-02-17T21:34:48.507Z,90.70
2018-02-17T21:37:16.095Z,90.70
2018-02-17T21:39:44.355Z,90.80
2018-02-17T21:42:12.628Z,90.80
2018-02-17T21:44:40.133Z,90.80
2018-02-17T21:47:07.653Z,90.50
2018-02-17T21:49:35.917Z,90.80
2018-02-17T21:52:04.180Z,90.80
2018-02-17T21:54:31.687Z,90.80
2018-02-17T21:56:59.203Z,90.70
2018-02-17T21:59:26.714Z,90.80
2018-02-17T22:01:54.207Z,90.70
2018-02-17T22:04:21.719Z,90.60
2018-02-17T22:06:49.239Z,90.60
2018-02-17T22:09:17.516Z,90.70
2018-02-17T22:11:45.016Z,90.60
2018-02-17T22:14:12.511Z,90.60
2018-02-17T22:16:40.007Z,90.70
2018-02-17T22:19:08.263Z,90.80
2018-02-17T22:21:35.785Z,90.80
2018-02-17T22:24:03.283Z,90.80
2018-02-17T22:26:30.815Z,90.90
2018-02-17T22:28:58.312Z,90.90
2018-02-17T22:31:26.603Z,91.00
2018-02-17T22:33:54.864Z,91.10
2018-02-17T22:36:23.151Z,91.20
2018-02-17T22:38:51.427Z,91.20
2018-02-17T22:41:19.699Z,91.30
2018-02-17T22:43:47.963Z,91.40
2018-02-17T22:46:15.455Z,91.40
2018-02-17T22:48:42.956Z,91.50
2018-02-17T22:51:10.471Z,91.50
2018-02-17T22:53:37.982Z,91.60
2018-02-17T22:56:05.488Z,91.70
2018-02-17T22:58:32.991Z,91.70
2018-02-17T23:01:00.492Z,91.80
2018-02-17T23:03:28.771Z,91.70
2018-02-17T23:05:57.036Z,91.70
2018-02-17T23:08:25.294Z,91.80
2018-02-17T23:10:52.792Z,91.80
2018-02-17T23:13:20.291Z,91.80
2018-02-17T23:15:47.820Z,91.80
2018-02-17T23:18:15.340Z,91.80
2018-02-17T23:20:43.615Z,92.00
2018-02-17T23:23:11.880Z,92.40
2018-02-17T23:25:39.384Z,92.00
2018-02-17T23:28:06.907Z,92.10
2018-02-17T23:30:35.183Z,92.10
2018-02-17T23:33:03.443Z,92.10
2018-02-17T23:35:30.959Z,92.10
2018-02-17T23:37:58.463Z,92.00
2018-02-17T23:40:25.969Z,92.10
2018-02-17T23:42:53.468Z,92.10
2018-02-17T23:45:20.992Z,92.10
2018-02-17T23:47:48.488Z,92.10
2018-02-17T23:50:15.991Z,92.10
2018-02-17T23:52:43.495Z,92.20
2018-02-17T23:55:10.987Z,92.20
2018-02-17T23:57:39.272Z,92.30
